sensor_id;sensor_type;location;lat;lon;timestamp;pressure;altitude;pressure_sealevel;temperature;humidity
14253;BME280;7210;51.502;10.722;2022-07-17T00:01:22;100804.19;;;9.82;84.64
14253;BME280;7210;51.502;10.722;2022-07-17T00:03:49;100818.41;;;9.81;84.67
14253;BME280;7210;51.502;10.722;2022-07-17T00:06:17;100815.91;;;9.73;84.91
14253;BME280;7210;51.502;10.722;2022-07-17T00:08:45;100817.69;;;9.66;85.41
14253;BME280;7210;51.502;10.722;2022-07-17T00:11:12;100823.91;;;9.59;85.51
14253;BME280;7210;51.502;10.722;2022-07-17T00:13:40;100817.56;;;9.53;85.69
14253;BME280;7210;51.502;10.722;2022-07-17T00:16:08;100821.69;;;9.41;85.84
14253;BME280;7210;51.502;10.722;2022-07-17T00:18:35;100825.75;;;9.37;86.17
14253;BME280;7210;51.502;10.722;2022-07-17T00:21:02;100819.97;;;9.27;86.48
14253;BME280;7210;51.502;10.722;2022-07-17T00:23:32;100827.44;;;9.24;86.74
14253;BME280;7210;51.502;10.722;2022-07-17T00:26:00;100822.06;;;9.17;87.01
14253;BME280;7210;51.502;10.722;2022-07-17T00:28:27;100827.13;;;9.12;86.99
14253;BME280;7210;51.502;10.722;2022-07-17T00:30:54;100803.97;;;8.93;86.74
14253;BME280;7210;51.502;10.722;2022-07-17T00:33:22;100817.16;;;8.93;87.12
14253;BME280;7210;51.502;10.722;2022-07-17T00:35:49;100835.81;;;8.92;87.46
14253;BME280;7210;51.502;10.722;2022-07-17T00:38:16;100828.47;;;8.87;87.86
14253;BME280;7210;51.502;10.722;2022-07-17T00:40:45;100829.44;;;8.86;88.14
14253;BME280;7210;51.502;10.722;2022-07-17T00:43:12;100823.91;;;8.81;88.55
14253;BME280;7210;51.502;10.722;2022-07-17T00:45:39;100830.19;;;8.80;88.73
14253;BME280;7210;51.502;10.722;2022-07-17T00:48:10;100833.91;;;8.71;88.92
14253;BME280;7210;51.502;10.722;2022-07-17T00:50:41;100828.63;;;8.71;89.46
14253;BME280;7210;51.502;10.722;2022-07-17T00:53:12;100830.66;;;8.69;89.83
14253;BME280;7210;51.502;10.722;2022-07-17T00:55:40;100834.28;;;8.68;89.87
14253;BME280;7210;51.502;10.722;2022-07-17T00:58:12;100826.66;;;8.73;90.11
14253;BME280;7210;51.502;10.722;2022-07-17T01:00:43;100827.91;;;8.77;90.41
14253;BME280;7210;51.502;10.722;2022-07-17T01:03:11;100829.53;;;8.78;90.22
14253;BME280;7210;51.502;10.722;2022-07-17T01:05:38;100823.03;;;8.74;90.32
14253;BME280;7210;51.502;10.722;2022-07-17T01:08:06;100822.75;;;8.69;89.87
14253;BME280;7210;51.502;10.722;2022-07-17T01:10:33;100821.50;;;8.65;90.18
14253;BME280;7210;51.502;10.722;2022-07-17T01:13:02;100818.75;;;8.59;90.21
14253;BME280;7210;51.502;10.722;2022-07-17T01:15:32;100821.13;;;8.54;90.28
14253;BME280;7210;51.502;10.722;2022-07-17T01:18:05;100817.44;;;8.48;90.06
14253;BME280;7210;51.502;10.722;2022-07-17T01:20:34;100814.41;;;8.51;90.15
14253;BME280;7210;51.502;10.722;2022-07-17T01:23:04;100815.50;;;8.57;90.29
14253;BME280;7210;51.502;10.722;2022-07-17T01:25:32;100820.84;;;8.63;90.46
14253;BME280;7210;51.502;10.722;2022-07-17T01:28:00;100813.38;;;8.67;90.11
14253;BME280;7210;51.502;10.722;2022-07-17T01:30:28;100809.03;;;8.59;90.15
14253;BME280;7210;51.502;10.722;2022-07-17T01:32:55;100817.44;;;8.48;90.23
14253;BME280;7210;51.502;10.722;2022-07-17T01:35:23;100822.59;;;8.42;90.45
14253;BME280;7210;51.502;10.722;2022-07-17T01:37:50;100829.88;;;8.40;90.81
14253;BME280;7210;51.502;10.722;2022-07-17T01:40:19;100818.25;;;8.34;91.15
14253;BME280;7210;51.502;10.722;2022-07-17T01:42:48;100822.06;;;8.32;91.71
14253;BME280;7210;51.502;10.722;2022-07-17T01:45:18;100834.16;;;8.26;91.79
14253;BME280;7210;51.502;10.722;2022-07-17T01:47:46;100828.41;;;8.23;91.76
14253;BME280;7210;51.502;10.722;2022-07-17T01:50:14;100826.63;;;8.15;92.30
14253;BME280;7210;51.502;10.722;2022-07-17T01:52:44;100829.00;;;8.10;92.63
14253;BME280;7210;51.502;10.722;2022-07-17T01:55:14;100819.75;;;8.14;92.46
14253;BME280;7210;51.502;10.722;2022-07-17T01:57:43;100825.84;;;8.15;92.37
14253;BME280;7210;51.502;10.722;2022-07-17T02:00:14;100822.38;;;8.14;92.28
14253;BME280;7210;51.502;10.722;2022-07-17T02:02:43;100824.09;;;8.07;92.22
14253;BME280;7210;51.502;10.722;2022-07-17T02:05:10;100828.72;;;8.05;92.63
14253;BME280;7210;51.502;10.722;2022-07-17T02:07:37;100830.06;;;8.01;92.68
14253;BME280;7210;51.502;10.722;2022-07-17T02:10:08;100822.84;;;8.03;92.67
14253;BME280;7210;51.502;10.722;2022-07-17T02:12:36;100824.91;;;8.08;92.72
14253;BME280;7210;51.502;10.722;2022-07-17T02:15:06;100834.28;;;8.10;92.68
14253;BME280;7210;51.502;10.722;2022-07-17T02:17:37;100838.19;;;8.14;92.87
14253;BME280;7210;51.502;10.722;2022-07-17T02:20:06;100822.91;;;8.10;92.41
14253;BME280;7210;51.502;10.722;2022-07-17T02:22:34;100820.19;;;8.03;92.32
14253;BME280;7210;51.502;10.722;2022-07-17T02:25:02;100820.28;;;7.95;92.57
14253;BME280;7210;51.502;10.722;2022-07-17T02:27:31;100812.00;;;7.84;92.49
14253;BME280;7210;51.502;10.722;2022-07-17T02:30:01;100816.59;;;7.82;93.13
14253;BME280;7210;51.502;10.722;2022-07-17T02:32:29;100816.69;;;7.74;93.23
14253;BME280;7210;51.502;10.722;2022-07-17T02:34:57;100831.91;;;7.64;93.21
14253;BME280;7210;51.502;10.722;2022-07-17T02:37:24;100830.19;;;7.56;93.65
14253;BME280;7210;51.502;10.722;2022-07-17T02:39:51;100837.06;;;7.57;94.11
14253;BME280;7210;51.502;10.722;2022-07-17T02:42:23;100824.44;;;7.53;94.52
14253;BME280;7210;51.502;10.722;2022-07-17T02:44:52;100841.63;;;7.63;94.74
14253;BME280;7210;51.502;10.722;2022-07-17T02:47:24;100842.09;;;7.67;94.82
14253;BME280;7210;51.502;10.722;2022-07-17T02:49:53;100834.25;;;7.59;94.37
14253;BME280;7210;51.502;10.722;2022-07-17T02:52:21;100830.56;;;7.45;93.81
14253;BME280;7210;51.502;10.722;2022-07-17T02:54:49;100837.53;;;7.38;94.15
14253;BME280;7210;51.502;10.722;2022-07-17T02:57:16;100834.63;;;7.33;93.97
14253;BME280;7210;51.502;10.722;2022-07-17T02:59:44;100833.31;;;7.29;94.24
14253;BME280;7210;51.502;10.722;2022-07-17T03:02:12;100833.06;;;7.25;94.66
14253;BME280;7210;51.502;10.722;2022-07-17T03:04:40;100838.00;;;7.20;94.76
14253;BME280;7210;51.502;10.722;2022-07-17T03:07:08;100844.59;;;7.16;94.90
14253;BME280;7210;51.502;10.722;2022-07-17T03:09:36;100845.94;;;7.12;95.30
14253;BME280;7210;51.502;10.722;2022-07-17T03:12:03;100846.56;;;7.14;95.05
14253;BME280;7210;51.502;10.722;2022-07-17T03:14:31;100850.19;;;7.13;95.44
14253;BME280;7210;51.502;10.722;2022-07-17T03:16:58;100836.09;;;7.06;95.49
14253;BME280;7210;51.502;10.722;2022-07-17T03:19:25;100838.09;;;7.04;95.75
14253;BME280;7210;51.502;10.722;2022-07-17T03:21:52;100840.25;;;7.00;95.68
14253;BME280;7210;51.502;10.722;2022-07-17T03:24:21;100847.97;;;7.02;95.91
14253;BME280;7210;51.502;10.722;2022-07-17T03:26:48;100851.88;;;7.06;96.35
14253;BME280;7210;51.502;10.722;2022-07-17T03:29:15;100848.91;;;7.09;96.27
14253;BME280;7210;51.502;10.722;2022-07-17T03:31:43;100843.00;;;7.07;96.06
14253;BME280;7210;51.502;10.722;2022-07-17T03:34:10;100841.72;;;7.03;96.07
14253;BME280;7210;51.502;10.722;2022-07-17T03:36:38;100845.69;;;6.99;96.06
14253;BME280;7210;51.502;10.722;2022-07-17T03:39:05;100850.25;;;7.05;96.74
14253;BME280;7210;51.502;10.722;2022-07-17T03:41:34;100853.53;;;7.07;96.96
14253;BME280;7210;51.502;10.722;2022-07-17T03:44:01;100851.09;;;7.05;96.69
14253;BME280;7210;51.502;10.722;2022-07-17T03:46:29;100847.63;;;7.05;97.10
14253;BME280;7210;51.502;10.722;2022-07-17T03:48:56;100855.97;;;7.08;96.84
14253;BME280;7210;51.502;10.722;2022-07-17T03:51:23;100855.81;;;7.10;96.99
14253;BME280;7210;51.502;10.722;2022-07-17T03:53:51;100853.88;;;7.04;96.84
14253;BME280;7210;51.502;10.722;2022-07-17T03:56:18;100857.47;;;7.11;96.62
14253;BME280;7210;51.502;10.722;2022-07-17T03:58:47;100858.25;;;7.11;96.65
14253;BME280;7210;51.502;10.722;2022-07-17T04:01:14;100856.47;;;7.12;97.13
14253;BME280;7210;51.502;10.722;2022-07-17T04:03:41;100856.47;;;7.12;96.76
14253;BME280;7210;51.502;10.722;2022-07-17T04:06:09;100864.81;;;7.15;96.95
14253;BME280;7210;51.502;10.722;2022-07-17T04:08:36;100865.94;;;7.21;96.99
14253;BME280;7210;51.502;10.722;2022-07-17T04:11:04;100870.34;;;7.20;97.14
14253;BME280;7210;51.502;10.722;2022-07-17T04:13:36;100881.34;;;7.23;97.51
14253;BME280;7210;51.502;10.722;2022-07-17T04:16:05;100881.03;;;7.27;97.40
14253;BME280;7210;51.502;10.722;2022-07-17T04:18:35;100893.81;;;7.29;97.63
14253;BME280;7210;51.502;10.722;2022-07-17T04:21:05;100887.22;;;7.33;97.75
14253;BME280;7210;51.502;10.722;2022-07-17T04:23:35;100899.34;;;7.42;97.77
14253;BME280;7210;51.502;10.722;2022-07-17T04:26:03;100895.34;;;7.46;97.71
14253;BME280;7210;51.502;10.722;2022-07-17T04:28:33;100896.28;;;7.53;97.77
14253;BME280;7210;51.502;10.722;2022-07-17T04:31:00;100888.69;;;7.58;98.30
14253;BME280;7210;51.502;10.722;2022-07-17T04:33:29;100886.00;;;7.66;98.39
14253;BME280;7210;51.502;10.722;2022-07-17T04:36:00;100886.88;;;7.81;98.41
14253;BME280;7210;51.502;10.722;2022-07-17T04:38:27;100874.09;;;7.93;98.74
14253;BME280;7210;51.502;10.722;2022-07-17T04:40:54;100888.59;;;8.11;98.68
14253;BME280;7210;51.502;10.722;2022-07-17T04:43:22;100893.28;;;8.24;98.42
14253;BME280;7210;51.502;10.722;2022-07-17T04:45:49;100888.56;;;8.34;98.57
14253;BME280;7210;51.502;10.722;2022-07-17T04:48:16;100891.09;;;8.42;98.03
14253;BME280;7210;51.502;10.722;2022-07-17T04:50:55;100895.03;;;8.60;98.10
14253;BME280;7210;51.502;10.722;2022-07-17T04:53:22;100899.03;;;8.71;97.72
14253;BME280;7210;51.502;10.722;2022-07-17T04:55:50;100901.00;;;8.83;97.17
14253;BME280;7210;51.502;10.722;2022-07-17T04:58:17;100899.56;;;8.95;96.92
14253;BME280;7210;51.502;10.722;2022-07-17T05:00:45;100901.34;;;9.09;96.57
14253;BME280;7210;51.502;10.722;2022-07-17T05:03:13;100898.41;;;9.19;96.18
14253;BME280;7210;51.502;10.722;2022-07-17T05:05:40;100897.13;;;9.29;95.72
14253;BME280;7210;51.502;10.722;2022-07-17T05:08:09;100897.63;;;9.39;95.24
14253;BME280;7210;51.502;10.722;2022-07-17T05:10:36;100902.16;;;9.45;94.87
14253;BME280;7210;51.502;10.722;2022-07-17T05:13:03;100902.09;;;9.60;94.84
14253;BME280;7210;51.502;10.722;2022-07-17T05:15:31;100896.56;;;9.76;94.38
14253;BME280;7210;51.502;10.722;2022-07-17T05:17:58;100900.16;;;9.89;94.01
14253;BME280;7210;51.502;10.722;2022-07-17T05:20:25;100896.63;;;10.03;93.54
14253;BME280;7210;51.502;10.722;2022-07-17T05:22:52;100885.75;;;10.13;93.27
14253;BME280;7210;51.502;10.722;2022-07-17T05:25:21;100870.13;;;10.18;92.75
14253;BME280;7210;51.502;10.722;2022-07-17T05:27:48;100861.81;;;10.21;92.74
14253;BME280;7210;51.502;10.722;2022-07-17T05:30:18;100866.75;;;10.30;92.89
14253;BME280;7210;51.502;10.722;2022-07-17T05:32:45;100842.38;;;10.28;92.97
14253;BME280;7210;51.502;10.722;2022-07-17T05:35:12;100867.94;;;10.55;92.99
14253;BME280;7210;51.502;10.722;2022-07-17T05:37:39;100852.75;;;10.70;92.92
14253;BME280;7210;51.502;10.722;2022-07-17T05:40:08;100843.03;;;10.84;92.85
14253;BME280;7210;51.502;10.722;2022-07-17T05:42:37;100846.56;;;10.97;92.59
14253;BME280;7210;51.502;10.722;2022-07-17T05:45:05;100842.56;;;11.14;92.37
14253;BME280;7210;51.502;10.722;2022-07-17T05:47:33;100850.13;;;11.30;91.79
14253;BME280;7210;51.502;10.722;2022-07-17T05:50:00;100861.13;;;11.46;91.05
14253;BME280;7210;51.502;10.722;2022-07-17T05:52:27;100866.13;;;11.69;90.37
14253;BME280;7210;51.502;10.722;2022-07-17T05:54:54;100850.22;;;11.82;88.75
14253;BME280;7210;51.502;10.722;2022-07-17T05:57:22;100852.84;;;11.95;87.79
14253;BME280;7210;51.502;10.722;2022-07-17T05:59:50;100860.00;;;12.14;86.77
14253;BME280;7210;51.502;10.722;2022-07-17T06:02:17;100861.59;;;12.28;86.29
14253;BME280;7210;51.502;10.722;2022-07-17T06:04:45;100860.38;;;12.37;86.11
14253;BME280;7210;51.502;10.722;2022-07-17T06:07:18;100875.00;;;12.59;85.84
14253;BME280;7210;51.502;10.722;2022-07-17T06:09:45;100866.84;;;12.67;85.04
14253;BME280;7210;51.502;10.722;2022-07-17T06:12:12;100863.13;;;12.74;84.62
14253;BME280;7210;51.502;10.722;2022-07-17T06:14:39;100861.88;;;12.83;84.20
14253;BME280;7210;51.502;10.722;2022-07-17T06:17:08;100865.31;;;12.97;84.11
14253;BME280;7210;51.502;10.722;2022-07-17T06:19:35;100864.81;;;13.13;84.44
14253;BME280;7210;51.502;10.722;2022-07-17T06:22:02;100847.84;;;13.20;83.29
14253;BME280;7210;51.502;10.722;2022-07-17T06:24:30;100855.50;;;13.41;83.14
14253;BME280;7210;51.502;10.722;2022-07-17T06:26:57;100847.53;;;13.66;82.90
14253;BME280;7210;51.502;10.722;2022-07-17T06:29:24;100851.09;;;13.84;82.04
14253;BME280;7210;51.502;10.722;2022-07-17T06:31:51;100845.78;;;14.09;80.98
14253;BME280;7210;51.502;10.722;2022-07-17T06:34:20;100851.59;;;14.24;80.28
14253;BME280;7210;51.502;10.722;2022-07-17T06:36:47;100846.13;;;14.37;79.74
14253;BME280;7210;51.502;10.722;2022-07-17T06:39:14;100834.00;;;14.59;78.70
14253;BME280;7210;51.502;10.722;2022-07-17T06:41:42;100819.97;;;14.70;77.21
14253;BME280;7210;51.502;10.722;2022-07-17T06:44:09;100815.31;;;14.83;74.73
14253;BME280;7210;51.502;10.722;2022-07-17T06:46:36;100819.38;;;14.86;73.97
14253;BME280;7210;51.502;10.722;2022-07-17T06:49:04;100819.19;;;14.99;73.21
14253;BME280;7210;51.502;10.722;2022-07-17T06:51:32;100810.06;;;15.06;73.01
14253;BME280;7210;51.502;10.722;2022-07-17T06:53:59;100811.06;;;15.23;72.48
14253;BME280;7210;51.502;10.722;2022-07-17T06:56:27;100800.47;;;15.34;71.90
14253;BME280;7210;51.502;10.722;2022-07-17T06:58:54;100792.00;;;15.37;70.86
14253;BME280;7210;51.502;10.722;2022-07-17T07:01:21;100786.25;;;15.40;70.45
14253;BME280;7210;51.502;10.722;2022-07-17T07:03:49;100783.00;;;15.38;70.22
14253;BME280;7210;51.502;10.722;2022-07-17T07:06:16;100791.25;;;15.48;70.42
14253;BME280;7210;51.502;10.722;2022-07-17T07:08:44;100786.63;;;15.67;69.55
14253;BME280;7210;51.502;10.722;2022-07-17T07:11:12;100770.50;;;15.73;69.01
14253;BME280;7210;51.502;10.722;2022-07-17T07:13:39;100771.91;;;15.87;69.07
14253;BME280;7210;51.502;10.722;2022-07-17T07:16:07;100773.75;;;15.98;68.21
14253;BME280;7210;51.502;10.722;2022-07-17T07:18:34;100777.69;;;16.07;67.63
14253;BME280;7210;51.502;10.722;2022-07-17T07:21:01;100771.56;;;16.18;66.81
14253;BME280;7210;51.502;10.722;2022-07-17T07:23:28;100775.84;;;16.19;66.47
14253;BME280;7210;51.502;10.722;2022-07-17T07:26:01;100772.47;;;16.24;66.44
14253;BME280;7210;51.502;10.722;2022-07-17T07:28:28;100778.38;;;16.26;66.32
14253;BME280;7210;51.502;10.722;2022-07-17T07:30:56;100773.66;;;16.39;66.18
14253;BME280;7210;51.502;10.722;2022-07-17T07:33:23;100788.06;;;16.66;65.81
14253;BME280;7210;51.502;10.722;2022-07-17T07:35:50;100782.00;;;16.82;64.87
14253;BME280;7210;51.502;10.722;2022-07-17T07:38:18;100786.19;;;16.78;65.04
14253;BME280;7210;51.502;10.722;2022-07-17T07:40:45;100778.13;;;16.90;64.04
14253;BME280;7210;51.502;10.722;2022-07-17T07:43:14;100781.22;;;16.98;64.08
14253;BME280;7210;51.502;10.722;2022-07-17T07:45:42;100779.31;;;17.10;63.73
14253;BME280;7210;51.502;10.722;2022-07-17T07:48:09;100782.16;;;17.20;63.20
14253;BME280;7210;51.502;10.722;2022-07-17T07:50:36;100765.06;;;17.21;63.54
14253;BME280;7210;51.502;10.722;2022-07-17T07:53:04;100764.69;;;17.29;63.36
14253;BME280;7210;51.502;10.722;2022-07-17T07:55:31;100766.63;;;17.34;62.52
14253;BME280;7210;51.502;10.722;2022-07-17T07:58:03;100759.16;;;17.47;61.12
14253;BME280;7210;51.502;10.722;2022-07-17T08:00:32;100756.06;;;17.55;61.65
14253;BME280;7210;51.502;10.722;2022-07-17T08:02:59;100766.44;;;17.68;61.58
14253;BME280;7210;51.502;10.722;2022-07-17T08:05:30;100772.84;;;17.84;61.47
14253;BME280;7210;51.502;10.722;2022-07-17T08:07:58;100774.41;;;18.01;59.74
14253;BME280;7210;51.502;10.722;2022-07-17T08:10:26;100767.19;;;18.18;58.51
14253;BME280;7210;51.502;10.722;2022-07-17T08:12:54;100779.94;;;18.49;58.29
14253;BME280;7210;51.502;10.722;2022-07-17T08:15:22;100768.72;;;18.52;58.22
14253;BME280;7210;51.502;10.722;2022-07-17T08:17:52;100760.75;;;18.57;57.77
14253;BME280;7210;51.502;10.722;2022-07-17T08:20:21;100746.28;;;18.58;56.76
14253;BME280;7210;51.502;10.722;2022-07-17T08:22:50;100757.56;;;18.60;56.44
14253;BME280;7210;51.502;10.722;2022-07-17T08:25:18;100752.75;;;18.62;55.23
14253;BME280;7210;51.502;10.722;2022-07-17T08:27:45;100750.66;;;18.64;54.40
14253;BME280;7210;51.502;10.722;2022-07-17T08:30:14;100754.63;;;18.83;53.20
14253;BME280;7210;51.502;10.722;2022-07-17T08:32:42;100763.78;;;18.87;53.71
14253;BME280;7210;51.502;10.722;2022-07-17T08:35:11;100756.63;;;18.98;53.48
14253;BME280;7210;51.502;10.722;2022-07-17T08:37:44;100753.22;;;19.02;52.99
14253;BME280;7210;51.502;10.722;2022-07-17T08:40:17;100762.09;;;19.29;51.52
14253;BME280;7210;51.502;10.722;2022-07-17T08:42:45;100774.34;;;19.51;50.57
14253;BME280;7210;51.502;10.722;2022-07-17T08:45:12;100765.31;;;19.62;49.88
14253;BME280;7210;51.502;10.722;2022-07-17T08:47:40;100764.25;;;19.63;50.59
14253;BME280;7210;51.502;10.722;2022-07-17T08:50:09;100770.53;;;19.79;49.90
14253;BME280;7210;51.502;10.722;2022-07-17T08:52:42;100761.50;;;19.90;48.14
14253;BME280;7210;51.502;10.722;2022-07-17T08:55:12;100780.19;;;20.11;48.64
14253;BME280;7210;51.502;10.722;2022-07-17T08:57:41;100783.19;;;20.20;48.15
14253;BME280;7210;51.502;10.722;2022-07-17T09:00:11;100767.56;;;20.12;48.55
14253;BME280;7210;51.502;10.722;2022-07-17T09:02:40;100775.09;;;20.15;48.18
14253;BME280;7210;51.502;10.722;2022-07-17T09:05:21;100766.50;;;20.18;48.45
14253;BME280;7210;51.502;10.722;2022-07-17T09:07:50;100776.75;;;20.26;47.16
14253;BME280;7210;51.502;10.722;2022-07-17T09:10:18;100766.03;;;20.26;47.09
14253;BME280;7210;51.502;10.722;2022-07-17T09:12:45;100774.16;;;20.36;47.48
14253;BME280;7210;51.502;10.722;2022-07-17T09:15:19;100768.25;;;20.34;47.24
14253;BME280;7210;51.502;10.722;2022-07-17T09:17:50;100767.16;;;20.40;45.79
14253;BME280;7210;51.502;10.722;2022-07-17T09:20:19;100766.66;;;20.48;45.00
14253;BME280;7210;51.502;10.722;2022-07-17T09:22:59;100774.81;;;20.68;46.38
14253;BME280;7210;51.502;10.722;2022-07-17T09:25:37;100781.84;;;20.79;46.80
14253;BME280;7210;51.502;10.722;2022-07-17T09:28:08;100781.59;;;20.85;47.29
14253;BME280;7210;51.502;10.722;2022-07-17T09:30:39;100781.38;;;20.92;46.37
14253;BME280;7210;51.502;10.722;2022-07-17T09:33:12;100781.41;;;20.97;46.59
14253;BME280;7210;51.502;10.722;2022-07-17T09:35:50;100783.56;;;21.05;45.42
14253;BME280;7210;51.502;10.722;2022-07-17T09:38:31;100793.81;;;21.23;46.06
14253;BME280;7210;51.502;10.722;2022-07-17T09:41:10;100784.94;;;21.27;44.39
14253;BME280;7210;51.502;10.722;2022-07-17T09:43:46;100778.22;;;21.30;45.00
14253;BME280;7210;51.502;10.722;2022-07-17T09:46:19;100783.06;;;21.23;45.19
14253;BME280;7210;51.502;10.722;2022-07-17T09:48:50;100767.44;;;21.25;45.34
14253;BME280;7210;51.502;10.722;2022-07-17T09:51:21;100780.94;;;21.35;45.63
14253;BME280;7210;51.502;10.722;2022-07-17T09:53:53;100776.09;;;21.52;44.64
14253;BME280;7210;51.502;10.722;2022-07-17T09:56:24;100771.25;;;21.59;42.23
14253;BME280;7210;51.502;10.722;2022-07-17T09:58:54;100768.56;;;21.59;42.15
14253;BME280;7210;51.502;10.722;2022-07-17T10:01:23;100771.81;;;21.71;42.57
14253;BME280;7210;51.502;10.722;2022-07-17T10:03:50;100773.94;;;21.79;41.85
14253;BME280;7210;51.502;10.722;2022-07-17T10:06:20;100782.53;;;22.01;41.60
14253;BME280;7210;51.502;10.722;2022-07-17T10:08:47;100770.16;;;22.05;41.46
14253;BME280;7210;51.502;10.722;2022-07-17T10:11:19;100773.34;;;22.17;40.49
14253;BME280;7210;51.502;10.722;2022-07-17T10:13:49;100781.69;;;22.20;40.26
14253;BME280;7210;51.502;10.722;2022-07-17T10:16:24;100773.34;;;22.17;39.07
14253;BME280;7210;51.502;10.722;2022-07-17T10:18:53;100778.47;;;22.13;40.86
14253;BME280;7210;51.502;10.722;2022-07-17T10:21:24;100772.78;;;22.25;40.50
14253;BME280;7210;51.502;10.722;2022-07-17T10:24:08;100781.38;;;22.42;40.86
14253;BME280;7210;51.502;10.722;2022-07-17T10:26:42;100782.41;;;22.51;41.13
14253;BME280;7210;51.502;10.722;2022-07-17T10:29:33;100779.09;;;22.74;40.25
14253;BME280;7210;51.502;10.722;2022-07-17T10:32:07;100795.69;;;23.01;40.13
14253;BME280;7210;51.502;10.722;2022-07-17T10:34:41;100778.94;;;23.04;38.14
14253;BME280;7210;51.502;10.722;2022-07-17T10:37:24;100772.06;;;22.78;38.99
14253;BME280;7210;51.502;10.722;2022-07-17T10:39:54;100781.72;;;22.89;37.43
14253;BME280;7210;51.502;10.722;2022-07-17T10:42:56;100779.00;;;22.89;37.88
14253;BME280;7210;51.502;10.722;2022-07-17T10:45:28;100783.53;;;23.03;39.22
14253;BME280;7210;51.502;10.722;2022-07-17T10:48:02;100771.34;;;23.16;38.91
14253;BME280;7210;51.502;10.722;2022-07-17T10:50:35;100785.78;;;23.35;38.81
14253;BME280;7210;51.502;10.722;2022-07-17T10:53:11;100779.59;;;23.34;38.22
14253;BME280;7210;51.502;10.722;2022-07-17T10:55:41;100764.81;;;23.22;38.01
14253;BME280;7210;51.502;10.722;2022-07-17T10:58:23;100781.72;;;23.32;37.90
14253;BME280;7210;51.502;10.722;2022-07-17T11:01:00;100784.91;;;23.44;38.79
14253;BME280;7210;51.502;10.722;2022-07-17T11:03:30;100785.22;;;23.71;39.39
14253;BME280;7210;51.502;10.722;2022-07-17T11:06:13;100779.97;;;23.84;38.05
14253;BME280;7210;51.502;10.722;2022-07-17T11:08:44;100772.09;;;23.60;37.27
14253;BME280;7210;51.502;10.722;2022-07-17T11:11:13;100775.31;;;23.62;38.79
14253;BME280;7210;51.502;10.722;2022-07-17T11:13:42;100788.63;;;23.87;37.95
14253;BME280;7210;51.502;10.722;2022-07-17T11:16:09;100785.88;;;23.92;37.05
14253;BME280;7210;51.502;10.722;2022-07-17T11:18:37;100791.19;;;24.01;35.68
14253;BME280;7210;51.502;10.722;2022-07-17T11:21:04;100782.56;;;23.99;36.82
14253;BME280;7210;51.502;10.722;2022-07-17T11:23:33;100772.28;;;23.96;35.94
14253;BME280;7210;51.502;10.722;2022-07-17T11:26:03;100775.78;;;24.02;36.09
14253;BME280;7210;51.502;10.722;2022-07-17T11:28:37;100772.50;;;24.28;36.25
14253;BME280;7210;51.502;10.722;2022-07-17T11:31:18;100767.38;;;24.50;35.45
14253;BME280;7210;51.502;10.722;2022-07-17T11:33:55;100780.34;;;24.53;34.94
14253;BME280;7210;51.502;10.722;2022-07-17T11:36:25;100779.06;;;24.46;34.52
14253;BME280;7210;51.502;10.722;2022-07-17T11:38:55;100777.72;;;24.43;35.23
14253;BME280;7210;51.502;10.722;2022-07-17T11:41:32;100774.63;;;24.55;34.44
14253;BME280;7210;51.502;10.722;2022-07-17T11:44:00;100773.72;;;24.64;34.64
14253;BME280;7210;51.502;10.722;2022-07-17T11:46:33;100788.47;;;24.95;34.99
14253;BME280;7210;51.502;10.722;2022-07-17T11:49:00;100789.38;;;25.28;35.23
14253;BME280;7210;51.502;10.722;2022-07-17T11:51:40;100777.72;;;25.27;33.09
14253;BME280;7210;51.502;10.722;2022-07-17T11:54:11;100772.00;;;25.10;32.76
14253;BME280;7210;51.502;10.722;2022-07-17T11:56:41;100768.78;;;25.08;33.22
14253;BME280;7210;51.502;10.722;2022-07-17T11:59:09;100772.91;;;25.24;34.40
14253;BME280;7210;51.502;10.722;2022-07-17T12:01:44;100778.41;;;25.51;33.74
14253;BME280;7210;51.502;10.722;2022-07-17T12:04:14;100784.94;;;25.82;34.14
14253;BME280;7210;51.502;10.722;2022-07-17T12:06:42;100783.03;;;26.01;33.04
14253;BME280;7210;51.502;10.722;2022-07-17T12:09:09;100784.84;;;26.33;32.84
14253;BME280;7210;51.502;10.722;2022-07-17T12:11:46;100780.25;;;26.60;32.53
14253;BME280;7210;51.502;10.722;2022-07-17T12:14:14;100780.63;;;26.40;31.95
14253;BME280;7210;51.502;10.722;2022-07-17T12:16:44;100783.63;;;26.12;32.04
14253;BME280;7210;51.502;10.722;2022-07-17T12:19:14;100794.50;;;26.25;33.06
14253;BME280;7210;51.502;10.722;2022-07-17T12:21:52;100791.66;;;26.30;33.20
14253;BME280;7210;51.502;10.722;2022-07-17T12:24:26;100788.69;;;26.59;32.03
14253;BME280;7210;51.502;10.722;2022-07-17T12:26:56;100780.63;;;26.40;31.68
14253;BME280;7210;51.502;10.722;2022-07-17T12:29:24;100793.09;;;26.82;32.35
14253;BME280;7210;51.502;10.722;2022-07-17T12:32:05;100785.16;;;26.85;30.58
14253;BME280;7210;51.502;10.722;2022-07-17T12:34:34;100790.91;;;26.70;32.07
14253;BME280;7210;51.502;10.722;2022-07-17T12:37:02;100777.53;;;26.74;30.13
14253;BME280;7210;51.502;10.722;2022-07-17T12:39:36;100781.03;;;26.74;30.92
14253;BME280;7210;51.502;10.722;2022-07-17T12:42:04;100776.38;;;26.88;31.99
14253;BME280;7210;51.502;10.722;2022-07-17T12:44:31;100784.38;;;27.20;32.01
14253;BME280;7210;51.502;10.722;2022-07-17T12:46:58;100790.75;;;27.38;31.06
14253;BME280;7210;51.502;10.722;2022-07-17T12:49:27;100796.88;;;27.65;30.10
14253;BME280;7210;51.502;10.722;2022-07-17T12:51:54;100774.63;;;27.41;29.36
14253;BME280;7210;51.502;10.722;2022-07-17T12:54:21;100764.91;;;26.91;29.32
14253;BME280;7210;51.502;10.722;2022-07-17T12:56:49;100775.06;;;26.86;30.60
14253;BME280;7210;51.502;10.722;2022-07-17T12:59:16;100784.97;;;27.04;31.05
14253;BME280;7210;51.502;10.722;2022-07-17T13:01:44;100777.97;;;27.16;30.90
14253;BME280;7210;51.502;10.722;2022-07-17T13:04:13;100787.56;;;27.22;31.37
14253;BME280;7210;51.502;10.722;2022-07-17T13:06:41;100778.47;;;27.40;31.72